createdAt,value
2022-10-19T00:01:10.339Z,9.50
2022-10-19T00:05:13.133Z,8.82
2022-10-19T00:09:22.574Z,8.98
2022-10-19T00:13:25.369Z,8.73
2022-10-19T00:17:28.271Z,8.25
2022-10-19T00:21:31.468Z,8.38
2022-10-19T00:25:36.885Z,7.85
2022-10-19T00:29:39.840Z,8.13
2022-10-19T00:33:43.133Z,8.27
2022-10-19T00:37:45.991Z,8.10
2022-10-19T00:41:50.344Z,7.78
2022-10-19T00:45:53.599Z,8.40
2022-10-19T00:49:59.939Z,8.68
2022-10-19T00:54:04.625Z,7.78
2022-10-19T00:58:11.733Z,8.10
2022-10-19T01:02:14.793Z,8.23
2022-10-19T01:06:19.512Z,8.52
2022-10-19T01:10:30.548Z,7.88
2022-10-19T01:14:48.302Z,8.73
2022-10-19T01:18:59.181Z,8.45
2022-10-19T01:23:34.866Z,9.18
2022-10-19T01:27:52.186Z,8.80
2022-10-19T01:32:04.756Z,9.13
2022-10-19T01:36:19.541Z,8.77
2022-10-19T01:40:29.095Z,9.60
2022-10-19T01:44:40.792Z,9.48
2022-10-19T01:48:52.317Z,8.45
2022-10-19T01:52:57.699Z,8.75
2022-10-19T01:57:03.380Z,8.57
2022-10-19T02:05:18.005Z,8.48
2022-10-19T02:09:21.183Z,7.75
2022-10-19T02:13:25.598Z,8.05
2022-10-19T02:17:32.645Z,7.88
2022-10-19T02:21:36.928Z,7.50
2022-10-19T02:25:39.807Z,7.70
2022-10-19T02:29:42.831Z,7.18
2022-10-19T02:33:45.714Z,7.63
2022-10-19T02:37:50.095Z,6.57
2022-10-19T02:41:57.026Z,7.15
2022-10-19T02:46:04.801Z,7.22
2022-10-19T02:50:09.400Z,6.60
2022-10-19T02:54:13.534Z,6.40
2022-10-19T02:58:16.397Z,6.78
2022-10-19T03:02:20.619Z,6.68
2022-10-19T03:06:23.406Z,7.07
2022-10-19T03:10:27.546Z,6.85
2022-10-19T03:14:30.334Z,6.07
2022-10-19T03:18:33.159Z,6.97
2022-10-19T03:22:35.959Z,6.72
2022-10-19T03:26:40.091Z,6.50
2022-10-19T03:30:42.893Z,6.97
2022-10-19T03:34:45.705Z,6.68
2022-10-19T03:38:50.413Z,6.50
2022-10-19T03:42:54.642Z,5.95
2022-10-19T03:46:57.450Z,6.43
2022-10-19T03:51:00.912Z,7.10
2022-10-19T03:55:03.743Z,6.32
2022-10-19T03:59:08.637Z,6.50
2022-10-19T04:03:11.427Z,6.88
2022-10-19T04:07:14.239Z,6.85
2022-10-19T04:11:18.989Z,6.53
2022-10-19T04:15:23.126Z,6.43
2022-10-19T04:19:25.934Z,5.97
2022-10-19T04:23:30.317Z,7.25
2022-10-19T04:27:33.578Z,7.82
2022-10-19T04:31:38.289Z,7.65
2022-10-19T04:35:41.107Z,7.30
2022-10-19T04:39:44.571Z,7.35
2022-10-19T04:43:48.481Z,8.57
2022-10-19T04:47:54.177Z,8.50
2022-10-19T04:51:57.066Z,8.07
2022-10-19T04:55:59.941Z,8.90
2022-10-19T05:00:03.719Z,9.20
2022-10-19T05:04:08.070Z,11.13
2022-10-19T05:08:11.594Z,8.82
2022-10-19T05:12:14.422Z,8.57
2022-10-19T05:16:19.452Z,9.00
2022-10-19T05:20:23.771Z,9.07
2022-10-19T05:24:26.581Z,9.57
2022-10-19T05:28:29.743Z,9.57
2022-10-19T05:32:32.785Z,9.70
2022-10-19T05:36:38.558Z,9.05
2022-10-19T05:40:49.189Z,9.20
2022-10-19T05:44:55.642Z,8.68
2022-10-19T05:49:00.865Z,9.38
2022-10-19T05:53:05.787Z,9.85
2022-10-19T05:57:08.602Z,10.15
2022-10-19T06:01:12.254Z,10.73
2022-10-19T06:05:15.189Z,10.75
2022-10-19T06:09:19.321Z,11.23
2022-10-19T06:13:22.182Z,11.52
2022-10-19T06:17:25.079Z,12.07
2022-10-19T06:21:29.753Z,11.02
2022-10-19T06:25:34.961Z,12.13
2022-10-19T06:29:37.922Z,11.80
2022-10-19T06:33:41.424Z,13.02
2022-10-19T06:37:44.405Z,12.85
2022-10-19T06:41:48.561Z,13.15
2022-10-19T06:45:54.594Z,13.15
2022-10-19T06:49:57.403Z,11.70
2022-10-19T06:54:00.256Z,10.95
2022-10-19T06:58:04.846Z,10.73
2022-10-19T07:02:07.901Z,10.57
2022-10-19T07:06:13.145Z,10.43
2022-10-19T07:10:16.145Z,10.40
2022-10-19T07:14:20.322Z,9.82
2022-10-19T07:18:23.129Z,10.00
2022-10-19T07:22:28.295Z,8.80
2022-10-19T07:26:33.097Z,9.43
2022-10-19T07:30:39.010Z,10.07
2022-10-19T07:34:41.809Z,9.00
2022-10-19T07:38:44.597Z,9.32
2022-10-19T07:42:47.385Z,9.10
2022-10-19T07:46:51.795Z,8.68
2022-10-19T07:50:54.681Z,8.00
2022-10-19T07:54:57.539Z,7.55
2022-10-19T07:59:01.638Z,6.90
2022-10-19T08:07:28.673Z,2.17
2022-10-19T08:11:33.342Z,1.98
2022-10-19T08:15:36.134Z,3.63
2022-10-19T08:19:43.341Z,5.97
2022-10-19T08:23:46.469Z,2.05
2022-10-19T08:27:49.345Z,1.90
2022-10-19T08:31:52.967Z,1.55
2022-10-19T08:35:57.107Z,1.70
2022-10-19T08:39:59.914Z,1.40
2022-10-19T08:44:29.513Z,1.67
2022-10-19T08:48:36.589Z,1.00
2022-10-19T08:52:41.300Z,0.80
2022-10-19T08:56:51.461Z,0.80
2022-10-19T09:01:01.397Z,0.70
2022-10-19T09:05:10.960Z,1.80
2022-10-19T09:09:15.741Z,0.80
2022-10-19T09:13:36.466Z,0.95
2022-10-19T09:17:50.048Z,1.20
2022-10-19T09:21:57.411Z,1.23
2022-10-19T09:26:01.543Z,1.10
2022-10-19T09:30:08.232Z,0.80
2022-10-19T09:34:17.853Z,1.02
2022-10-19T09:38:24.161Z,1.30
2022-10-19T09:42:30.335Z,1.13
2022-10-19T09:46:48.367Z,1.33
2022-10-19T09:50:57.262Z,1.67
2022-10-19T09:55:02.750Z,1.58
2022-10-19T09:59:23.139Z,1.92
2022-10-19T10:03:29.915Z,1.70
2022-10-19T10:07:37.288Z,1.58
2022-10-19T10:11:41.196Z,1.67
2022-10-19T10:15:49.100Z,1.85
2022-10-19T10:20:03.883Z,1.60
2022-10-19T10:24:17.341Z,1.40
2022-10-19T10:28:22.496Z,2.00
2022-10-19T10:32:28.561Z,1.40
2022-10-19T10:36:32.882Z,1.80
2022-10-19T10:40:36.042Z,1.27
2022-10-19T10:44:39.177Z,1.27
2022-10-19T10:48:47.708Z,1.67
2022-10-19T10:53:01.105Z,1.27
2022-10-19T10:57:16.629Z,1.27
2022-10-19T11:01:23.053Z,1.20
2022-10-19T11:05:32.100Z,1.40
2022-10-19T11:09:43.399Z,1.55
2022-10-19T11:13:52.608Z,1.52
2022-10-19T11:18:04.751Z,1.58
2022-10-19T11:22:22.486Z,1.60
2022-10-19T11:26:40.798Z,1.80
2022-10-19T11:30:57.706Z,1.70
2022-10-19T11:35:17.051Z,1.65
2022-10-19T11:39:36.317Z,1.63
2022-10-19T11:43:45.218Z,2.45
2022-10-19T11:48:00.390Z,1.92
2022-10-19T11:52:13.097Z,2.10
2022-10-19T11:56:34.765Z,1.88
2022-10-19T12:00:47.543Z,2.08
2022-10-19T12:04:55.406Z,1.83
2022-10-19T12:09:11.551Z,1.65
2022-10-19T12:13:19.621Z,1.83
2022-10-19T12:17:27.418Z,1.60
2022-10-19T12:21:35.162Z,1.67
2022-10-19T12:25:41.189Z,1.50
2022-10-19T12:29:48.397Z,1.30
2022-10-19T12:33:57.856Z,1.40
2022-10-19T12:38:07.657Z,1.23
2022-10-19T12:42:20.249Z,1.15
2022-10-19T12:46:34.899Z,1.40
2022-10-19T12:51:01.208Z,1.40
2022-10-19T12:55:28.206Z,1.45
2022-10-19T12:59:33.571Z,1.70
2022-10-19T13:03:40.491Z,1.40
2022-10-19T13:07:43.579Z,1.00
2022-10-19T13:12:21.892Z,1.10
2022-10-19T13:16:58.168Z,1.45
2022-10-19T13:21:03.610Z,1.42
2022-10-19T13:25:30.465Z,1.10
2022-10-19T13:29:43.107Z,1.60
2022-10-19T13:33:51.678Z,1.45
2022-10-19T13:38:26.234Z,1.35
2022-10-19T13:42:31.498Z,1.02
2022-10-19T13:46:54.036Z,1.10
2022-10-19T13:51:07.251Z,1.00
2022-10-19T13:55:42.168Z,1.33
2022-10-19T14:00:04.984Z,1.30
2022-10-19T14:04:37.382Z,1.02
2022-10-19T14:09:12.697Z,1.10
2022-10-19T14:13:18.126Z,1.42
2022-10-19T14:17:24.477Z,1.33
2022-10-19T14:21:32.126Z,1.10
2022-10-19T14:25:34.976Z,0.85
2022-10-19T14:29:46.099Z,0.93
2022-10-19T14:33:52.316Z,1.30
2022-10-19T14:37:55.638Z,0.93
2022-10-19T14:42:01.608Z,0.90
2022-10-19T14:46:16.522Z,1.27
2022-10-19T14:50:20.682Z,1.00
2022-10-19T14:54:30.117Z,1.10
2022-10-19T14:58:40.282Z,1.25
2022-10-19T15:02:48.005Z,0.98
2022-10-19T15:06:51.158Z,1.25
2022-10-19T15:10:54.559Z,1.10
2022-10-19T15:14:58.382Z,1.08
2022-10-19T15:19:06.311Z,1.05
2022-10-19T15:23:33.505Z,1.30
2022-10-19T15:27:38.611Z,1.25
2022-10-19T15:31:43.541Z,1.45
2022-10-19T15:35:49.303Z,1.05
2022-10-19T15:39:52.991Z,1.30
2022-10-19T15:44:01.131Z,1.30
2022-10-19T15:48:29.049Z,1.50
2022-10-19T15:52:34.387Z,1.30
2022-10-19T15:56:38.900Z,1.80
2022-10-19T16:00:42.883Z,1.80
2022-10-19T16:04:45.735Z,2.10
2022-10-19T16:08:51.078Z,2.17
2022-10-19T16:12:54.412Z,1.88
2022-10-19T16:17:00.391Z,1.95
2022-10-19T16:21:03.818Z,2.20
2022-10-19T16:25:08.599Z,2.17
2022-10-19T16:29:11.492Z,2.53
2022-10-19T16:33:14.359Z,2.33
2022-10-19T16:43:06.619Z,2.97
2022-10-19T16:47:09.460Z,3.15
2022-10-19T16:51:26.005Z,3.20
2022-10-19T16:55:29.846Z,3.70
2022-10-19T16:59:34.052Z,3.03
2022-10-19T17:03:36.967Z,2.85
2022-10-19T17:07:39.811Z,3.25
2022-10-19T17:11:42.659Z,4.05
2022-10-19T17:15:47.269Z,3.13
2022-10-19T17:19:50.205Z,3.17
2022-10-19T17:23:54.032Z,3.40
2022-10-19T17:27:56.830Z,3.30
2022-10-19T17:32:01.202Z,15.43
2022-10-19T17:36:06.392Z,11.60
2022-10-19T17:40:10.527Z,8.02
2022-10-19T17:44:16.407Z,3.83
2022-10-19T17:48:21.270Z,4.20
2022-10-19T17:52:24.121Z,3.75
2022-10-19T17:56:27.763Z,3.90
2022-10-19T18:00:30.652Z,3.67
2022-10-19T18:08:41.453Z,3.53
2022-10-19T18:12:45.149Z,3.50
2022-10-19T18:16:48.999Z,3.00
2022-10-19T18:20:53.250Z,3.30
2022-10-19T18:24:56.153Z,3.45
2022-10-19T18:29:03.074Z,2.90
2022-10-19T18:33:06.915Z,2.80
2022-10-19T18:37:11.172Z,2.53
2022-10-19T18:45:21.756Z,2.33
2022-10-19T18:49:25.205Z,2.15
2022-10-19T18:53:30.789Z,1.80
2022-10-19T18:57:35.129Z,1.80
2022-10-19T19:01:39.390Z,1.88
2022-10-19T19:05:42.873Z,1.85
2022-10-19T19:09:47.089Z,1.98
2022-10-19T19:13:52.037Z,2.33
2022-10-19T19:17:55.611Z,2.30
2022-10-19T19:21:58.553Z,2.20
2022-10-19T19:26:04.354Z,2.50
2022-10-19T19:30:08.160Z,2.50
2022-10-19T19:34:11.025Z,2.42
2022-10-19T19:38:15.171Z,2.22
2022-10-19T19:42:19.360Z,2.00
2022-10-19T19:46:22.522Z,2.25
2022-10-19T19:50:28.503Z,2.00
2022-10-19T19:54:31.701Z,2.05
2022-10-19T19:58:36.249Z,2.20
2022-10-19T20:02:39.381Z,2.90
2022-10-19T20:06:44.415Z,2.20
2022-10-19T20:10:47.269Z,2.47
2022-10-19T20:14:51.465Z,2.97
2022-10-19T20:18:59.913Z,2.05
2022-10-19T20:23:02.700Z,2.38
2022-10-19T20:27:05.548Z,2.40
2022-10-19T20:31:10.617Z,2.55
2022-10-19T20:35:13.775Z,2.40
2022-10-19T20:39:16.763Z,2.33
2022-10-19T20:43:19.567Z,2.40
2022-10-19T20:47:23.780Z,2.65
2022-10-19T20:51:30.991Z,2.38
2022-10-19T20:55:34.982Z,2.50
2022-10-19T20:59:38.739Z,2.35
2022-10-19T21:03:46.874Z,2.50
2022-10-19T21:07:50.034Z,2.50
2022-10-19T21:11:53.239Z,2.47
2022-10-19T21:15:56.098Z,2.47
2022-10-19T21:20:00.331Z,2.65
2022-10-19T21:24:05.999Z,2.80
2022-10-19T21:28:08.807Z,2.80
2022-10-19T21:32:11.632Z,2.70
2022-10-19T21:36:16.548Z,2.92
2022-10-19T21:40:19.402Z,2.70
2022-10-19T21:44:23.075Z,2.97
2022-10-19T21:48:26.055Z,2.30
2022-10-19T21:52:30.262Z,2.85
2022-10-19T21:56:34.107Z,3.08
2022-10-19T22:00:37.257Z,3.00
2022-10-19T22:04:40.175Z,2.60
2022-10-19T22:08:47.607Z,2.70
2022-10-19T22:12:50.614Z,2.88
2022-10-19T22:16:53.490Z,2.83
2022-10-19T22:20:56.367Z,3.40
2022-10-19T22:25:00.669Z,3.35
2022-10-19T22:29:05.116Z,3.10
2022-10-19T22:33:08.192Z,3.25
2022-10-19T22:37:11.426Z,3.00
2022-10-19T22:41:15.670Z,3.33
2022-10-19T22:45:18.728Z,3.13
2022-10-19T22:49:21.777Z,3.30
2022-10-19T22:53:25.476Z,3.33
2022-10-19T22:57:29.650Z,3.25
2022-10-19T23:01:33.487Z,3.80
2022-10-19T23:05:37.145Z,3.45
2022-10-19T23:09:40.147Z,3.67
2022-10-19T23:13:44.392Z,3.78
2022-10-19T23:17:47.240Z,4.13
2022-10-19T23:21:50.119Z,4.20
2022-10-19T23:26:01.394Z,4.65
2022-10-19T23:30:06.362Z,4.80
2022-10-19T23:34:09.174Z,5.43
2022-10-19T23:38:11.998Z,5.38
2022-10-19T23:42:14.831Z,5.28
2022-10-19T23:46:19.134Z,5.38
2022-10-19T23:50:21.939Z,5.72
2022-10-19T23:54:24.971Z,6.55
2022-10-19T23:58:28.351Z,6.43
